createdAt,value
2022-09-05T00:01:48.939Z,66.12
2022-09-05T00:03:59.495Z,65.65
2022-09-05T00:06:25.702Z,65.94
2022-09-05T00:08:32.763Z,66.04
2022-09-05T00:11:15.381Z,66.27
2022-09-05T00:13:16.845Z,66.35
2022-09-05T00:15:25.647Z,66.54
2022-09-05T00:18:39.747Z,66.44
2022-09-05T00:24:18.755Z,67.05
2022-09-05T00:24:30.631Z,66.51
2022-09-05T00:25:31.308Z,66.47
2022-09-05T00:27:46.558Z,66.16
2022-09-05T00:31:51.093Z,66.87
2022-09-05T00:32:50.770Z,67.15
2022-09-05T00:35:07.551Z,66.35
2022-09-05T00:37:11.359Z,67.35
2022-09-05T00:39:23.035Z,66.81
2022-09-05T00:41:27.388Z,68.19
2022-09-05T00:43:34.121Z,68.22
2022-09-05T00:45:43.143Z,68.74
2022-09-05T00:47:50.315Z,68.69
2022-09-05T00:49:59.959Z,68.74
2022-09-05T00:52:07.634Z,68.45
2022-09-05T00:54:41.009Z,68.16
2022-09-05T00:57:04.413Z,68.04
2022-09-05T00:59:50.950Z,67.47
2022-09-05T01:02:07.878Z,68.80
2022-09-05T01:04:25.298Z,68.85
2022-09-05T01:06:35.732Z,69.13
2022-09-05T01:08:53.392Z,69.29
2022-09-05T01:11:05.088Z,68.71
2022-09-05T01:13:21.397Z,68.66
2022-09-05T01:15:35.233Z,68.69
2022-09-05T01:17:52.917Z,68.41
2022-09-05T01:20:19.592Z,68.20
2022-09-05T01:22:44.604Z,68.15
2022-09-05T01:24:57.231Z,67.82
2022-09-05T01:28:25.279Z,67.90
2022-09-05T01:30:08.537Z,67.44
2022-09-05T01:32:26.406Z,67.63
2022-09-05T01:34:37.194Z,67.54
2022-09-05T01:36:54.979Z,68.84
2022-09-05T01:40:01.725Z,68.95
2022-09-05T01:41:37.369Z,68.92
2022-09-05T01:43:58.702Z,68.18
2022-09-05T01:46:11.501Z,68.55
2022-09-05T01:48:30.133Z,68.20
2022-09-05T01:50:41.288Z,68.25
2022-09-05T01:53:00.169Z,68.67
2022-09-05T01:55:23.388Z,68.71
2022-09-05T01:57:39.743Z,68.97
2022-09-05T01:59:50.451Z,68.73
2022-09-05T02:02:11.826Z,68.78
2022-09-05T02:04:50.827Z,68.73
2022-09-05T02:07:20.094Z,68.46
2022-09-05T02:09:50.843Z,68.20
2022-09-05T02:12:05.879Z,68.24
2022-09-05T02:14:27.025Z,68.11
2022-09-05T02:16:45.586Z,68.34
2022-09-05T02:18:55.445Z,68.51
2022-09-05T02:21:01.591Z,68.28
2022-09-05T02:23:29.433Z,68.64
2022-09-05T02:26:02.460Z,68.45
2022-09-05T02:28:13.856Z,68.49
2022-09-05T02:30:20.158Z,68.89
2022-09-05T02:32:29.992Z,68.76
2022-09-05T02:34:43.553Z,68.63
2022-09-05T02:36:51.823Z,68.67
2022-09-05T02:44:35.878Z,68.54
2022-09-05T02:45:13.551Z,68.17
2022-09-05T02:45:16.501Z,68.86
2022-09-05T02:46:31.468Z,67.67
2022-09-05T02:48:49.761Z,67.73
2022-09-05T02:57:23.209Z,67.63
2022-09-05T02:57:37.619Z,67.75
2022-09-05T02:57:41.942Z,67.84
2022-09-05T02:59:09.230Z,68.04
2022-09-05T03:01:20.465Z,68.10
2022-09-05T03:03:34.905Z,68.03
2022-09-05T03:05:46.720Z,67.94
2022-09-05T03:08:12.899Z,67.82
2022-09-05T03:10:53.769Z,67.67
2022-09-05T03:13:38.779Z,68.40
2022-09-05T03:16:32.806Z,67.26
2022-09-05T03:19:14.324Z,68.34
2022-09-05T03:22:00.797Z,68.42
2022-09-05T03:24:25.500Z,68.63
2022-09-05T03:26:56.831Z,68.60
2022-09-05T03:29:30.580Z,68.56
2022-09-05T03:31:51.667Z,68.58
2022-09-05T03:34:22.606Z,68.73
2022-09-05T03:36:54.352Z,68.97
2022-09-05T03:39:35.288Z,69.27
2022-09-05T03:42:15.245Z,69.33
2022-09-05T03:44:33.441Z,69.46
2022-09-05T03:46:56.147Z,69.44
2022-09-05T03:51:24.363Z,69.32
2022-09-05T03:57:08.179Z,69.07
2022-09-05T03:57:27.901Z,69.12
2022-09-05T03:58:02.199Z,69.20
2022-09-05T04:00:23.372Z,69.32
2022-09-05T04:08:06.516Z,69.58
2022-09-05T04:08:15.120Z,69.95
2022-09-05T04:08:15.654Z,69.59
2022-09-05T04:09:57.756Z,70.09
2022-09-05T04:12:10.405Z,70.16
2022-09-05T04:14:23.831Z,70.21
2022-09-05T04:16:30.524Z,70.07
2022-09-05T04:18:38.461Z,69.86
2022-09-05T04:20:47.801Z,69.69
2022-09-05T04:23:09.288Z,69.68
2022-09-05T04:25:17.399Z,69.60
2022-09-05T04:27:35.689Z,68.05
2022-09-05T04:29:49.257Z,68.21
2022-09-05T04:32:18.689Z,69.07
2022-09-05T04:34:37.130Z,69.35
2022-09-05T04:36:41.091Z,69.65
2022-09-05T04:38:45.085Z,69.49
2022-09-05T04:41:01.186Z,70.19
2022-09-05T04:43:06.686Z,69.66
2022-09-05T04:45:17.453Z,69.69
2022-09-05T04:47:31.444Z,69.40
2022-09-05T04:49:38.622Z,69.34
2022-09-05T04:52:04.472Z,69.37
2022-09-05T04:54:36.245Z,69.62
2022-09-05T04:56:43.963Z,69.68
2022-09-05T05:01:20.025Z,69.78
2022-09-05T05:06:03.586Z,69.74
2022-09-05T05:06:12.590Z,69.90
2022-09-05T05:06:38.094Z,69.96
2022-09-05T05:08:44.038Z,70.35
2022-09-05T05:14:36.689Z,70.29
2022-09-05T05:17:57.330Z,70.15
2022-09-05T05:18:09.963Z,69.04
2022-09-05T05:18:36.592Z,69.48
2022-09-05T05:20:55.146Z,69.76
2022-09-05T05:23:07.513Z,69.75
2022-09-05T05:25:13.114Z,69.83
2022-09-05T05:27:23.455Z,70.07
2022-09-05T05:29:32.377Z,69.24
2022-09-05T05:31:39.985Z,70.37
2022-09-05T05:33:49.300Z,71.04
2022-09-05T05:35:52.900Z,70.93
2022-09-05T05:38:04.925Z,70.70
2022-09-05T05:40:11.641Z,70.82
2022-09-05T05:42:20.591Z,71.06
2022-09-05T05:44:31.578Z,70.89
2022-09-05T05:46:37.135Z,70.94
2022-09-05T05:48:42.220Z,71.08
2022-09-05T05:51:06.732Z,71.17
2022-09-05T05:53:33.442Z,71.40
2022-09-05T05:56:02.072Z,71.53
2022-09-05T05:58:19.232Z,71.76
2022-09-05T06:00:30.911Z,71.73
2022-09-05T06:03:27.547Z,72.10
2022-09-05T06:05:56.076Z,72.29
2022-09-05T06:10:55.270Z,72.35
2022-09-05T06:14:59.039Z,70.58
2022-09-05T06:15:06.733Z,72.27
2022-09-05T06:16:51.354Z,71.13
2022-09-05T06:19:16.213Z,70.22
2022-09-05T06:22:09.629Z,70.62
2022-09-05T06:24:43.966Z,71.11
2022-09-05T06:27:23.483Z,71.28
2022-09-05T06:29:46.460Z,71.61
2022-09-05T06:32:03.880Z,71.86
2022-09-05T06:34:35.375Z,71.93
2022-09-05T06:36:51.532Z,71.62
2022-09-05T06:39:07.087Z,71.44
2022-09-05T06:41:26.172Z,71.65
2022-09-05T06:43:56.834Z,71.54
2022-09-05T06:46:11.341Z,71.74
2022-09-05T06:48:24.944Z,71.62
2022-09-05T06:51:09.454Z,71.62
2022-09-05T06:53:45.508Z,71.61
2022-09-05T06:55:59.598Z,71.79
2022-09-05T06:58:43.385Z,71.58
2022-09-05T07:00:48.749Z,71.55
2022-09-05T07:03:17.073Z,72.25
2022-09-05T07:05:42.661Z,72.05
2022-09-05T07:07:52.879Z,71.94
2022-09-05T07:10:06.072Z,71.87
2022-09-05T07:12:22.112Z,72.13
2022-09-05T07:14:30.227Z,71.92
2022-09-05T07:16:47.536Z,71.88
2022-09-05T07:19:03.144Z,71.97
2022-09-05T07:21:16.505Z,71.81
2022-09-05T07:23:49.318Z,72.45
2022-09-05T07:26:00.028Z,73.30
2022-09-05T07:28:28.345Z,73.86
2022-09-05T07:30:34.728Z,73.95
2022-09-05T07:32:43.987Z,73.57
2022-09-05T07:34:49.414Z,72.86
2022-09-05T07:37:13.787Z,73.08
2022-09-05T07:39:28.691Z,73.21
2022-09-05T07:41:34.207Z,73.19
2022-09-05T07:43:41.736Z,72.80
2022-09-05T07:45:55.553Z,72.66
2022-09-05T07:48:04.807Z,72.66
2022-09-05T07:53:34.721Z,72.42
2022-09-05T07:56:51.733Z,71.10
2022-09-05T07:56:58.478Z,71.96
2022-09-05T07:57:51.395Z,70.96
2022-09-05T07:59:58.810Z,70.24
2022-09-05T08:02:04.268Z,70.32
2022-09-05T08:04:06.865Z,70.86
2022-09-05T08:06:15.831Z,71.08
2022-09-05T08:09:18.095Z,70.69
2022-09-05T08:11:23.587Z,70.29
2022-09-05T08:13:46.572Z,69.82
2022-09-05T08:16:09.801Z,69.93
2022-09-05T08:18:23.902Z,69.51
2022-09-05T08:20:33.976Z,69.38
2022-09-05T08:22:52.204Z,69.33
2022-09-05T08:25:01.176Z,69.71
2022-09-05T08:27:16.743Z,70.53
2022-09-05T08:29:31.906Z,70.50
2022-09-05T08:31:42.161Z,70.16
2022-09-05T08:33:49.567Z,70.44
2022-09-05T08:35:57.795Z,70.52
2022-09-05T08:38:04.416Z,70.62
2022-09-05T08:40:12.634Z,70.86
2022-09-05T08:42:29.593Z,70.91
2022-09-05T08:46:47.453Z,70.64
2022-09-05T08:47:11.383Z,70.74
2022-09-05T08:49:49.392Z,70.52
2022-09-05T08:51:55.847Z,70.41
2022-09-05T08:54:24.552Z,70.46
2022-09-05T08:56:32.728Z,70.60
2022-09-05T08:59:27.127Z,70.51
2022-09-05T09:01:22.607Z,70.47
2022-09-05T09:03:33.499Z,70.59
2022-09-05T09:06:14.334Z,70.80
2022-09-05T09:08:25.227Z,70.91
2022-09-05T09:10:35.936Z,70.68
2022-09-05T09:13:04.778Z,70.47
2022-09-05T09:15:16.572Z,70.61
2022-09-05T09:17:24.258Z,70.38
2022-09-05T09:19:41.381Z,70.34
2022-09-05T09:21:58.211Z,70.00
2022-09-05T09:24:13.550Z,69.34
2022-09-05T09:26:17.423Z,69.39
2022-09-05T09:28:51.074Z,69.14
2022-09-05T09:30:58.207Z,68.85
2022-09-05T09:33:05.479Z,68.54
2022-09-05T09:35:28.148Z,68.63
2022-09-05T09:38:14.578Z,68.57
2022-09-05T09:40:31.030Z,68.82
2022-09-05T09:42:45.339Z,68.58
2022-09-05T09:45:29.029Z,68.55
2022-09-05T09:47:59.171Z,69.09
2022-09-05T09:50:18.846Z,68.78
2022-09-05T09:52:59.543Z,67.94
2022-09-05T09:55:42.674Z,68.13
2022-09-05T09:58:04.701Z,68.32
2022-09-05T10:00:11.600Z,68.50
2022-09-05T10:07:21.283Z,67.89
2022-09-05T10:10:35.506Z,68.03
2022-09-05T10:10:47.500Z,67.29
2022-09-05T10:13:56.959Z,67.25
2022-09-05T10:16:38.382Z,67.00
2022-09-05T10:19:01.219Z,67.34
2022-09-05T10:21:25.607Z,67.01
2022-09-05T10:23:57.329Z,66.43
2022-09-05T10:26:33.509Z,66.61
2022-09-05T10:28:45.018Z,66.81
2022-09-05T10:32:12.136Z,66.50
2022-09-05T10:35:05.992Z,65.84
2022-09-05T10:36:02.565Z,65.29
2022-09-05T10:38:11.231Z,65.43
2022-09-05T10:40:18.921Z,65.51
2022-09-05T10:42:30.234Z,64.71
2022-09-05T10:44:40.574Z,63.56
2022-09-05T10:46:53.007Z,62.35
2022-09-05T10:49:01.833Z,61.27
2022-09-05T10:51:17.226Z,61.12
2022-09-05T10:53:39.824Z,61.17
2022-09-05T10:55:54.949Z,61.60
2022-09-05T10:58:05.634Z,60.41
2022-09-05T11:02:21.865Z,58.91
2022-09-05T11:02:58.309Z,57.92
2022-09-05T11:05:09.313Z,57.56
2022-09-05T11:07:16.278Z,57.58
2022-09-05T11:09:29.169Z,58.53
2022-09-05T11:11:45.817Z,59.02
2022-09-05T11:13:50.954Z,57.79
2022-09-05T11:16:08.315Z,58.42
2022-09-05T11:18:23.110Z,57.49
2022-09-05T11:21:04.799Z,57.50
2022-09-05T11:23:12.906Z,57.85
2022-09-05T11:25:20.544Z,58.13
2022-09-05T11:27:47.507Z,54.85
2022-09-05T11:29:53.558Z,54.69
2022-09-05T11:35:58.153Z,53.33
2022-09-05T11:39:56.956Z,51.39
2022-09-05T11:40:02.802Z,54.60
2022-09-05T11:40:49.299Z,52.40
2022-09-05T11:43:40.455Z,52.08
2022-09-05T11:46:30.003Z,51.19
2022-09-05T11:49:05.438Z,51.70
2022-09-05T11:51:53.143Z,51.29
2022-09-05T11:54:27.983Z,49.79
2022-09-05T11:57:33.858Z,50.08
2022-09-05T12:00:30.780Z,51.04
2022-09-05T12:02:32.735Z,51.17
2022-09-05T12:05:50.129Z,51.48
2022-09-05T12:07:36.125Z,50.85
2022-09-05T12:09:59.486Z,45.75
2022-09-05T12:12:34.199Z,45.72
2022-09-05T12:14:54.930Z,46.41
2022-09-05T12:17:10.174Z,47.59
2022-09-05T12:19:27.887Z,45.35
2022-09-05T12:21:38.170Z,45.46
2022-09-05T12:24:13.565Z,46.04
2022-09-05T12:27:38.043Z,46.35
2022-09-05T12:29:33.692Z,46.25
2022-09-05T12:32:50.444Z,46.53
2022-09-05T12:36:04.362Z,46.93
2022-09-05T12:40:56.188Z,45.39
2022-09-05T12:41:00.969Z,44.35
2022-09-05T12:41:46.170Z,42.25
2022-09-05T12:44:39.522Z,42.03
2022-09-05T12:46:24.170Z,42.58
2022-09-05T12:48:38.560Z,41.96
2022-09-05T12:50:52.020Z,39.76
2022-09-05T12:53:02.883Z,38.89
2022-09-05T12:55:12.051Z,37.24
2022-09-05T13:00:58.586Z,36.11
2022-09-05T13:02:56.721Z,35.82
2022-09-05T13:03:02.752Z,34.91
2022-09-05T13:05:01.157Z,33.63
2022-09-05T13:07:09.661Z,33.27
2022-09-05T13:09:22.146Z,33.53
2022-09-05T13:14:49.039Z,33.17
2022-09-05T13:14:58.637Z,32.65
2022-09-05T13:16:23.826Z,31.98
2022-09-05T13:18:34.171Z,32.49
2022-09-05T13:20:39.767Z,31.86
2022-09-05T13:22:48.656Z,28.92
2022-09-05T13:24:59.836Z,28.79
2022-09-05T13:27:13.669Z,27.87
2022-09-05T13:29:19.392Z,27.97
2022-09-05T13:38:08.026Z,28.45
2022-09-05T13:38:15.469Z,27.91
2022-09-05T13:38:20.017Z,27.24
2022-09-05T13:39:20.261Z,27.18
2022-09-05T13:41:28.630Z,27.78
2022-09-05T13:43:38.098Z,27.76
2022-09-05T13:46:04.823Z,28.34
2022-09-05T13:48:30.069Z,27.24
2022-09-05T13:50:37.620Z,27.61
2022-09-05T13:52:45.512Z,27.38
2022-09-05T13:54:52.960Z,28.30
2022-09-05T13:57:06.813Z,28.04
2022-09-05T13:59:15.268Z,28.21
2022-09-05T14:01:37.887Z,27.85
2022-09-05T14:05:05.345Z,26.29
2022-09-05T14:09:57.130Z,28.26
2022-09-05T14:12:09.554Z,28.29
2022-09-05T14:15:08.304Z,28.87
2022-09-05T14:16:53.704Z,29.82
2022-09-05T14:19:15.126Z,29.24
2022-09-05T14:21:18.209Z,29.39
2022-09-05T14:23:26.644Z,30.62
2022-09-05T14:25:36.239Z,29.53
2022-09-05T14:27:44.220Z,30.22
2022-09-05T14:29:50.829Z,29.18
2022-09-05T14:37:39.024Z,31.01
2022-09-05T14:37:39.636Z,29.15
2022-09-05T14:38:01.238Z,30.11
2022-09-05T14:40:29.903Z,29.08
2022-09-05T14:42:51.019Z,29.51
2022-09-05T14:45:13.940Z,29.76
2022-09-05T14:47:49.110Z,29.65
2022-09-05T14:50:07.122Z,29.66
2022-09-05T14:52:18.634Z,30.58
2022-09-05T14:58:49.214Z,30.91
2022-09-05T15:02:43.897Z,30.11
2022-09-05T15:02:49.657Z,31.80
2022-09-05T15:04:39.770Z,32.87
2022-09-05T15:07:00.639Z,33.03
2022-09-05T15:12:15.940Z,33.93
2022-09-05T15:12:26.015Z,34.13
2022-09-05T15:13:57.376Z,35.46
2022-09-05T15:16:09.235Z,35.74
2022-09-05T15:18:19.811Z,36.24
2022-09-05T15:20:35.761Z,36.98
2022-09-05T15:22:43.302Z,37.38
2022-09-05T15:25:01.403Z,37.37
2022-09-05T15:27:19.631Z,38.48
2022-09-05T15:29:25.572Z,38.67
2022-09-05T15:31:28.694Z,39.19
2022-09-05T15:33:33.083Z,39.79
2022-09-05T15:35:37.930Z,40.03
2022-09-05T15:37:42.418Z,40.88
2022-09-05T15:39:45.066Z,41.62
2022-09-05T15:41:47.931Z,42.58
2022-09-05T15:43:58.279Z,43.36
2022-09-05T15:46:02.906Z,43.74
2022-09-05T15:48:16.091Z,44.02
2022-09-05T15:50:26.364Z,44.30
2022-09-05T15:52:39.863Z,44.48
2022-09-05T15:54:50.213Z,44.56
2022-09-05T15:56:54.703Z,44.20
2022-09-05T15:59:00.424Z,44.48
2022-09-05T16:01:12.775Z,44.34
2022-09-05T16:06:39.071Z,44.47
2022-09-05T16:10:31.137Z,44.12
2022-09-05T16:10:43.462Z,44.13
2022-09-05T16:12:03.477Z,44.12
2022-09-05T16:13:53.036Z,43.82
2022-09-05T16:19:25.024Z,43.89
2022-09-05T16:23:16.180Z,43.72
2022-09-05T16:23:31.185Z,43.97
2022-09-05T16:23:41.812Z,43.82
2022-09-05T16:25:48.776Z,43.78
2022-09-05T16:27:55.684Z,44.07
2022-09-05T16:29:59.549Z,44.73
2022-09-05T16:32:18.887Z,44.79
2022-09-05T16:34:29.732Z,44.87
2022-09-05T16:36:41.741Z,45.36
2022-09-05T16:38:56.910Z,45.46
2022-09-05T16:41:05.509Z,46.47
2022-09-05T16:43:13.244Z,46.31
2022-09-05T16:45:25.137Z,46.17
2022-09-05T16:47:35.106Z,46.81
2022-09-05T16:49:43.083Z,46.90
2022-09-05T16:51:50.452Z,47.14
2022-09-05T16:53:59.576Z,47.48
2022-09-05T16:56:05.390Z,47.98
2022-09-05T16:58:14.177Z,47.58
2022-09-05T17:00:17.128Z,47.75
2022-09-05T17:02:28.422Z,47.99
2022-09-05T17:04:56.337Z,47.99
2022-09-05T17:07:14.702Z,48.12
2022-09-05T17:09:25.206Z,48.32
2022-09-05T17:11:29.918Z,48.69
2022-09-05T17:13:42.055Z,48.23
2022-09-05T17:15:51.610Z,49.05
2022-09-05T17:18:22.565Z,48.77
2022-09-05T17:20:28.582Z,48.89
2022-09-05T17:25:06.985Z,49.16
2022-09-05T17:29:23.803Z,48.96
2022-09-05T17:29:35.089Z,49.61
2022-09-05T17:32:28.924Z,49.55
2022-09-05T17:35:18.174Z,49.46
2022-09-05T17:37:46.982Z,50.11
2022-09-05T17:39:59.261Z,50.01
2022-09-05T17:42:22.322Z,49.57
2022-09-05T17:44:32.757Z,49.70
2022-09-05T17:46:43.534Z,49.66
2022-09-05T17:49:18.785Z,50.14
2022-09-05T17:52:02.008Z,50.06
2022-09-05T17:54:27.862Z,50.60
2022-09-05T17:56:34.920Z,50.12
2022-09-05T17:58:49.092Z,50.34
2022-09-05T18:01:07.522Z,50.64
2022-09-05T18:03:10.319Z,51.15
2022-09-05T18:05:57.648Z,50.76
2022-09-05T18:08:02.216Z,50.98
2022-09-05T18:10:14.736Z,51.03
2022-09-05T18:13:13.419Z,50.82
2022-09-05T18:15:05.072Z,50.02
2022-09-05T18:20:23.370Z,50.20
2022-09-05T18:22:29.373Z,49.42
2022-09-05T18:24:37.470Z,49.44
2022-09-05T18:26:44.114Z,50.45
2022-09-05T18:31:58.946Z,49.99
2022-09-05T18:34:35.215Z,50.28
2022-09-05T18:36:39.159Z,50.39
2022-09-05T18:38:50.987Z,50.30
2022-09-05T18:41:12.293Z,50.37
2022-09-05T18:43:25.343Z,50.69
2022-09-05T18:45:33.607Z,50.71
2022-09-05T18:47:53.100Z,50.06
2022-09-05T18:50:25.235Z,50.62
2022-09-05T18:52:29.876Z,49.99
2022-09-05T18:54:34.439Z,50.65
2022-09-05T18:57:09.733Z,50.92
2022-09-05T18:59:13.102Z,51.23
2022-09-05T19:01:23.106Z,51.39
2022-09-05T19:03:34.636Z,51.27
2022-09-05T19:05:45.554Z,51.25
2022-09-05T19:07:59.359Z,51.03
2022-09-05T19:10:20.564Z,50.58
2022-09-05T19:12:34.941Z,50.83
2022-09-05T19:14:49.576Z,50.82
2022-09-05T19:16:52.338Z,51.56
2022-09-05T19:19:16.358Z,52.09
2022-09-05T19:21:21.785Z,51.90
2022-09-05T19:23:29.068Z,52.44
2022-09-05T19:25:35.564Z,52.85
2022-09-05T19:30:31.135Z,52.87
2022-09-05T19:36:49.643Z,53.44
2022-09-05T19:36:51.245Z,53.76
2022-09-05T19:36:54.921Z,54.29
2022-09-05T19:37:28.865Z,54.45
2022-09-05T19:42:01.793Z,55.04
2022-09-05T19:47:41.358Z,54.30
2022-09-05T19:47:43.858Z,54.39
2022-09-05T19:47:45.138Z,54.44
2022-09-05T19:49:22.679Z,55.09
2022-09-05T19:51:26.963Z,55.16
2022-09-05T19:53:29.732Z,54.91
2022-09-05T19:55:37.678Z,54.99
2022-09-05T19:57:40.422Z,55.46
2022-09-05T19:59:45.902Z,55.39
2022-09-05T20:01:48.921Z,56.03
2022-09-05T20:03:53.761Z,56.41
2022-09-05T20:05:56.639Z,56.95
2022-09-05T20:08:02.007Z,56.81
2022-09-05T20:10:06.463Z,56.92
2022-09-05T20:12:19.822Z,57.63
2022-09-05T20:14:29.156Z,58.10
2022-09-05T20:16:31.964Z,58.40
2022-09-05T20:18:41.135Z,58.42
2022-09-05T20:20:51.780Z,58.35
2022-09-05T20:22:59.236Z,58.66
2022-09-05T20:25:03.791Z,58.79
2022-09-05T20:27:06.875Z,58.80
2022-09-05T20:29:13.085Z,59.05
2022-09-05T20:31:17.779Z,58.86
2022-09-05T20:33:24.584Z,58.88
2022-09-05T20:40:06.817Z,58.99
2022-09-05T20:43:22.128Z,58.90
2022-09-05T20:43:22.129Z,59.11
2022-09-05T20:43:24.417Z,59.10
2022-09-05T20:45:11.118Z,59.13
2022-09-05T20:54:08.451Z,59.29
2022-09-05T20:54:08.902Z,59.72
2022-09-05T20:54:16.435Z,59.79
2022-09-05T20:54:42.397Z,59.94
2022-09-05T20:56:48.290Z,60.13
2022-09-05T20:59:00.878Z,60.02
2022-09-05T21:01:20.222Z,60.31
2022-09-05T21:03:31.302Z,60.27
2022-09-05T21:05:35.616Z,60.00
2022-09-05T21:07:39.950Z,59.95
2022-09-05T21:09:54.654Z,60.66
2022-09-05T21:11:58.724Z,60.88
2022-09-05T21:14:04.736Z,61.03
2022-09-05T21:16:16.973Z,60.32
2022-09-05T21:18:22.369Z,60.80
2022-09-05T21:20:25.547Z,60.95
2022-09-05T21:22:43.120Z,61.00
2022-09-05T21:24:47.327Z,61.05
2022-09-05T21:26:51.180Z,61.16
2022-09-05T21:29:04.838Z,61.37
2022-09-05T21:31:16.014Z,61.47
2022-09-05T21:33:24.218Z,61.31
2022-09-05T21:35:47.341Z,61.23
2022-09-05T21:37:49.949Z,61.21
2022-09-05T21:39:58.465Z,61.42
2022-09-05T21:42:19.939Z,61.63
2022-09-05T21:47:37.492Z,61.83
2022-09-05T21:47:39.907Z,61.66
2022-09-05T21:49:15.233Z,61.71
2022-09-05T21:51:25.001Z,61.97
2022-09-05T21:59:10.280Z,61.94
2022-09-05T21:59:22.225Z,61.89
2022-09-05T21:59:24.725Z,61.72
2022-09-05T22:00:39.503Z,62.21
2022-09-05T22:02:42.138Z,62.06
2022-09-05T22:04:47.101Z,62.24
2022-09-05T22:06:50.109Z,62.29
2022-09-05T22:09:12.898Z,62.31
2022-09-05T22:11:16.029Z,62.37
2022-09-05T22:13:18.623Z,62.54
2022-09-05T22:15:27.451Z,62.65
2022-09-05T22:17:32.460Z,62.63
2022-09-05T22:19:37.620Z,62.76
2022-09-05T22:21:42.051Z,62.77
2022-09-05T22:23:48.071Z,63.16
2022-09-05T22:25:50.861Z,63.02
2022-09-05T22:27:57.353Z,63.26
2022-09-05T22:30:00.127Z,63.14
2022-09-05T22:32:03.989Z,63.20
2022-09-05T22:34:06.583Z,63.48
2022-09-05T22:36:09.254Z,63.56
2022-09-05T22:38:19.774Z,63.36
2022-09-05T22:40:22.640Z,63.59
2022-09-05T22:42:25.477Z,63.67
2022-09-05T22:44:28.020Z,63.38
2022-09-05T22:46:31.439Z,63.30
2022-09-05T22:48:34.067Z,63.59
2022-09-05T22:50:37.441Z,63.43
2022-09-05T22:52:40.017Z,63.65
2022-09-05T22:54:43.924Z,63.74
2022-09-05T22:56:46.503Z,63.66
2022-09-05T22:58:49.133Z,64.05
2022-09-05T23:00:51.709Z,63.89
2022-09-05T23:02:57.620Z,63.92
2022-09-05T23:05:00.191Z,64.01
2022-09-05T23:07:03.440Z,64.00
2022-09-05T23:09:06.042Z,64.27
2022-09-05T23:11:11.874Z,63.96
2022-09-05T23:13:14.515Z,64.19
2022-09-05T23:15:17.611Z,64.20
2022-09-05T23:17:20.276Z,64.39
2022-09-05T23:19:22.858Z,64.27
2022-09-05T23:21:25.482Z,64.15
2022-09-05T23:23:28.070Z,64.43
2022-09-05T23:25:30.607Z,64.46
2022-09-05T23:27:37.265Z,64.81
2022-09-05T23:29:39.832Z,64.49
2022-09-05T23:31:42.408Z,64.77
2022-09-05T23:33:45.030Z,64.90
2022-09-05T23:35:47.619Z,64.94
2022-09-05T23:37:50.242Z,65.15
2022-09-05T23:39:52.856Z,65.00
2022-09-05T23:41:55.425Z,64.72
2022-09-05T23:43:59.354Z,65.31
2022-09-05T23:46:02.536Z,65.55
2022-09-05T23:48:05.655Z,65.81
2022-09-05T23:50:08.791Z,66.32
2022-09-05T23:52:11.372Z,66.34
2022-09-05T23:54:14.011Z,66.35
2022-09-05T23:56:16.580Z,66.05
2022-09-05T23:58:19.127Z,66.41
